Time;durP1;ratioP1;P1;durP2;ratioP2;P2;SDS_P1;SDS_P2;PMS_P1;PMS_P2;Temp;Humidity;BMP_temperature;BMP_pressure;BME280_temperature;BME280_humidity;BME280_pressure;Samples;Min_cycle;Max_cycle;Signal;HPM_P1;HPM_P2
2022/01/18 00:01:14;;;;;;;6.60;2.20;;;1.00;99.90;;;;;;5051973;28;20420;-69
2022/01/18 00:03:40;;;;;;;1.97;1.37;;;1.00;99.90;;;;;;5051560;28;20448;-70
2022/01/18 00:06:05;;;;;;;5.00;1.10;;;1.00;99.90;;;;;;5051590;28;20405;-69
2022/01/18 00:08:31;;;;;;;5.80;1.63;;;1.00;99.90;;;;;;5051374;28;20193;-70
2022/01/18 00:10:56;;;;;;;3.13;2.40;;;1.00;99.90;;;;;;5051536;28;20174;-70
2022/01/18 00:13:35;;;;;;;4.33;3.13;;;1.00;99.90;;;;;;5051578;28;20174;-69
2022/01/18 00:18:30;;;;;;;0.80;0.80;;;0.90;99.90;;;;;;5026906;28;20462;-70
2022/01/18 00:21:15;;;;;;;4.67;2.13;;;0.90;99.90;;;;;;5030363;28;20433;-69
2022/01/18 00:23:41;;;;;;;5.33;2.47;;;0.90;99.90;;;;;;5011725;28;20600;-69
2022/01/18 00:26:09;;;;;;;6.60;1.77;;;0.90;99.90;;;;;;5011732;28;20478;-69
2022/01/18 00:28:36;;;;;;;11.30;2.23;;;0.90;99.90;;;;;;5011860;28;20326;-69
2022/01/18 00:36:24;;;;;;;5.17;2.30;;;0.90;99.90;;;;;;5025316;28;20168;-70
2022/01/18 00:38:50;;;;;;;2.03;1.93;;;0.80;99.90;;;;;;5031707;28;20430;-70
2022/01/18 00:41:18;;;;;;;3.37;3.13;;;0.80;99.90;;;;;;5032518;28;20411;-70
2022/01/18 00:43:44;;;;;;;6.70;1.93;;;0.80;99.90;;;;;;5034610;28;20191;-70
2022/01/18 00:46:13;;;;;;;2.30;1.43;;;0.80;99.90;;;;;;5032436;28;20390;-70
2022/01/18 00:48:42;;;;;;;1.10;1.00;;;0.70;99.90;;;;;;5031478;28;20797;-70
2022/01/18 00:51:12;;;;;;;9.80;2.00;;;0.70;99.90;;;;;;5031302;28;20413;-70
2022/01/18 00:53:39;;;;;;;2.23;2.03;;;0.70;99.90;;;;;;5037671;28;20414;-70
2022/01/18 00:58:31;;;;;;;4.80;1.80;;;0.70;99.90;;;;;;5051322;28;20459;-70
2022/01/18 01:00:57;;;;;;;1.13;1.03;;;0.70;99.90;;;;;;5051239;28;20405;-70
2022/01/18 01:03:22;;;;;;;1.80;1.10;;;0.70;99.90;;;;;;5033176;28;20202;-69
2022/01/18 01:05:48;;;;;;;2.27;1.53;;;0.70;99.90;;;;;;5051039;28;20171;-70
2022/01/18 01:08:14;;;;;;;7.10;2.33;;;0.60;99.90;;;;;;5050771;28;20525;-70
2022/01/18 01:10:39;;;;;;;1.70;1.43;;;0.60;99.90;;;;;;5054360;28;20171;-70
2022/01/18 01:13:05;;;;;;;4.73;1.20;;;0.60;99.90;;;;;;5054749;28;20531;-69
2022/01/18 01:15:35;;;;;;;1.33;1.23;;;0.50;99.90;;;;;;5055050;28;20548;-70
2022/01/18 01:18:21;;;;;;;7.43;0.97;;;0.50;99.90;;;;;;5043393;28;20465;-70
2022/01/18 01:41:43;;;;;;;1.73;1.30;;;0.30;99.90;;;;;;5034440;28;20439;-69
2022/01/18 01:45:23;;;;;;;6.17;1.90;;;0.30;99.90;;;;;;5034237;28;20512;-69
2022/01/18 01:47:51;;;;;;;1.37;1.27;;;0.20;99.90;;;;;;5034250;28;20453;-69
2022/01/18 01:50:20;;;;;;;2.77;2.30;;;0.30;99.90;;;;;;5034323;28;20410;-69
2022/01/18 01:52:50;;;;;;;2.00;1.20;;;0.30;99.90;;;;;;5034047;28;20398;-70
2022/01/18 01:55:17;;;;;;;17.87;2.10;;;0.20;99.90;;;;;;5034051;28;20411;-70
2022/01/18 01:57:42;;;;;;;2.10;2.00;;;0.10;99.90;;;;;;5033771;28;20537;-70
2022/01/18 02:00:16;;;;;;;8.63;1.57;;;0.00;99.90;;;;;;5033865;28;20512;-69
2022/01/18 02:02:41;;;;;;;0.70;0.70;;;0.00;99.90;;;;;;5033956;28;20172;-70
2022/01/18 02:05:08;;;;;;;3.63;1.63;;;0.10;99.90;;;;;;5033716;28;20410;-69
2022/01/18 02:07:33;;;;;;;1.43;1.30;;;0.20;99.90;;;;;;5022638;28;20250;-70
2022/01/18 02:09:59;;;;;;;2.10;1.80;;;0.20;99.90;;;;;;5013980;28;20769;-69
2022/01/18 02:12:25;;;;;;;7.00;2.50;;;0.10;99.90;;;;;;5013994;28;20172;-69
2022/01/18 02:14:58;;;;;;;2.10;1.73;;;0.10;99.90;;;;;;5013893;28;20175;-70
2022/01/18 02:22:54;;;;;;;1.03;1.03;;;0.10;99.90;;;;;;5033375;28;20436;-70
2022/01/18 02:25:20;;;;;;;1.93;1.83;;;0.10;99.90;;;;;;5033405;28;20902;-69
2022/01/18 02:27:45;;;;;;;5.60;1.40;;;0.00;99.90;;;;;;5033521;28;20422;-70
2022/01/18 02:30:11;;;;;;;5.90;1.47;;;0.10;99.90;;;;;;5033532;28;20641;-70
2022/01/18 02:32:37;;;;;;;3.80;1.83;;;0.10;99.90;;;;;;5033407;28;20164;-69
2022/01/18 02:35:03;;;;;;;2.70;0.90;;;0.10;99.90;;;;;;5033163;28;20414;-70
2022/01/18 02:37:29;;;;;;;1.37;1.27;;;0.10;99.90;;;;;;5033366;28;20183;-69
2022/01/18 02:39:55;;;;;;;3.07;2.80;;;0.10;99.90;;;;;;5033254;28;20772;-70
2022/01/18 02:42:25;;;;;;;1.00;1.00;;;0.10;99.90;;;;;;5022955;28;20180;-70
2022/01/18 02:44:52;;;;;;;13.00;2.50;;;0.10;99.90;;;;;;5013648;28;20204;-70
2022/01/18 02:47:22;;;;;;;2.90;1.57;;;0.10;99.90;;;;;;5013520;28;20434;-70
2022/01/18 02:49:48;;;;;;;0.73;0.73;;;0.10;99.90;;;;;;5013541;28;20419;-70
2022/01/18 02:52:15;;;;;;;1.60;1.40;;;0.00;99.90;;;;;;5013526;28;20916;-70
2022/01/18 02:54:41;;;;;;;1.43;1.33;;;0.10;99.90;;;;;;5042295;28;20421;-69
2022/01/18 02:57:11;;;;;;;4.13;2.60;;;0.00;99.90;;;;;;5052923;28;20435;-69
2022/01/18 02:59:51;;;;;;;0.83;0.83;;;0.10;99.90;;;;;;5053125;28;20156;-69
2022/01/18 03:05:13;;;;;;;2.30;1.53;;;0.10;99.90;;;;;;5055906;28;20500;-69
2022/01/18 03:07:40;;;;;;;2.03;0.90;;;0.10;99.90;;;;;;5054975;28;20421;-69
2022/01/18 03:10:07;;;;;;;3.67;1.80;;;0.10;99.90;;;;;;5052956;28;20394;-69
2022/01/18 03:12:32;;;;;;;0.70;0.70;;;0.10;99.90;;;;;;5052643;28;20427;-69
2022/01/18 03:14:58;;;;;;;6.33;1.30;;;0.10;99.90;;;;;;5052534;28;20841;-69
2022/01/18 03:17:23;;;;;;;2.20;0.90;;;0.10;99.90;;;;;;5046225;28;20223;-70
2022/01/18 03:19:49;;;;;;;3.33;1.83;;;0.20;99.90;;;;;;5032459;28;20272;-70
2022/01/18 03:22:14;;;;;;;3.97;1.67;;;0.10;99.90;;;;;;5032518;28;20167;-70
2022/01/18 03:24:53;;;;;;;1.70;1.60;;;0.10;99.90;;;;;;5032588;28;20196;-70
2022/01/18 03:30:05;;;;;;;3.20;1.50;;;0.10;99.90;;;;;;5032630;28;20409;-70
2022/01/18 03:32:31;;;;;;;3.17;1.20;;;0.10;99.90;;;;;;5031557;28;20420;-70
2022/01/18 03:34:56;;;;;;;0.80;0.80;;;0.20;99.90;;;;;;5032417;28;20402;-69
2022/01/18 03:37:22;;;;;;;4.20;3.43;;;0.20;99.90;;;;;;5032359;28;20227;-69
2022/01/18 03:39:47;;;;;;;1.63;1.53;;;0.20;99.90;;;;;;5032250;28;20168;-70
2022/01/18 03:44:42;;;;;;;1.50;1.40;;;0.20;99.90;;;;;;5032026;28;20199;-70
2022/01/18 03:47:07;;;;;;;1.40;1.33;;;0.20;99.90;;;;;;5032603;28;20433;-69
2022/01/18 03:49:36;;;;;;;8.03;1.93;;;0.20;99.90;;;;;;5032292;28;20410;-70
2022/01/18 03:52:02;;;;;;;2.53;2.40;;;0.20;99.90;;;;;;5032230;28;20172;-70
2022/01/18 03:54:27;;;;;;;2.63;1.00;;;0.20;99.90;;;;;;5044971;28;20447;-70
2022/01/18 03:56:53;;;;;;;1.13;1.13;;;0.20;99.90;;;;;;5051674;28;20176;-70
2022/01/18 03:59:18;;;;;;;2.40;1.87;;;0.20;99.90;;;;;;5051908;28;20166;-71
2022/01/18 04:01:43;;;;;;;2.33;2.23;;;0.20;99.90;;;;;;5051702;28;20179;-70
2022/01/18 04:04:09;;;;;;;1.93;1.83;;;0.20;99.90;;;;;;5051830;28;20198;-71
2022/01/18 04:06:34;;;;;;;3.60;1.83;;;0.20;99.90;;;;;;5051815;28;20178;-70
2022/01/18 04:09:00;;;;;;;1.67;1.57;;;0.10;99.90;;;;;;5051674;28;20243;-70
2022/01/18 04:11:27;;;;;;;4.40;1.37;;;0.10;99.90;;;;;;5051724;28;20178;-70
2022/01/18 04:13:52;;;;;;;1.43;1.33;;;0.10;99.90;;;;;;5051845;28;20181;-70
2022/01/18 04:16:18;;;;;;;1.27;1.17;;;0.10;99.90;;;;;;5049304;28;20413;-70
2022/01/18 04:29:09;;;;;;;1.17;1.03;;;0.10;99.90;;;;;;5031886;28;20398;-70
2022/01/18 04:31:35;;;;;;;1.20;1.10;;;0.00;99.90;;;;;;5031757;28;20432;-70
2022/01/18 04:34:01;;;;;;;1.33;1.23;;;0.10;99.90;;;;;;5031501;28;20421;-70
2022/01/18 04:36:27;;;;;;;2.73;1.00;;;0.20;99.90;;;;;;5031349;28;20920;-70
2022/01/18 04:38:54;;;;;;;0.80;0.80;;;0.20;99.90;;;;;;5031446;28;20263;-72
2022/01/18 04:41:25;;;;;;;1.30;1.07;;;0.30;99.90;;;;;;5031645;28;20406;-70
2022/01/18 04:49:12;;;;;;;3.80;1.40;;;0.40;99.90;;;;;;5035838;28;20877;-71
2022/01/18 04:51:37;;;;;;;2.00;1.90;;;0.50;99.90;;;;;;5035488;28;20432;-70
2022/01/18 04:54:06;;;;;;;6.80;2.77;;;0.50;99.90;;;;;;5044910;28;20508;-70
2022/01/18 04:59:01;;;;;;;1.70;1.57;;;0.60;99.90;;;;;;5055366;28;20441;-71
2022/01/18 05:01:27;;;;;;;1.10;0.83;;;0.60;99.90;;;;;;5055198;28;20413;-70
2022/01/18 05:03:52;;;;;;;0.80;0.80;;;0.60;99.90;;;;;;5055489;28;20475;-68
2022/01/18 05:06:19;;;;;;;1.63;1.53;;;0.70;99.90;;;;;;5055226;28;20167;-69
2022/01/18 05:08:45;;;;;;;1.07;1.00;;;0.70;99.90;;;;;;5055179;28;20198;-69
2022/01/18 05:11:15;;;;;;;2.57;2.10;;;0.70;99.90;;;;;;5055201;28;20447;-69
2022/01/18 05:14:06;;;;;;;1.13;1.03;;;0.80;99.90;;;;;;5054956;28;20413;-70
2022/01/18 05:19:18;;;;;;;3.53;1.37;;;0.80;99.90;;;;;;5060532;22;20496;-72
2022/01/18 05:24:22;;;;;;;6.80;3.57;;;0.80;99.90;;;;;;5055008;28;20472;-73
2022/01/18 05:26:49;;;;;;;4.30;1.90;;;0.80;99.90;;;;;;5055319;28;20489;-73
2022/01/18 05:29:15;;;;;;;3.60;1.07;;;0.90;99.90;;;;;;5055132;28;20422;-73
2022/01/18 05:31:41;;;;;;;1.10;0.80;;;0.90;99.90;;;;;;5054566;28;20409;-73
2022/01/18 05:34:06;;;;;;;1.77;0.93;;;0.90;99.90;;;;;;5054597;28;20409;-73
2022/01/18 05:36:32;;;;;;;3.60;1.53;;;0.90;99.90;;;;;;5054640;28;20637;-73
2022/01/18 05:38:57;;;;;;;0.80;0.80;;;1.00;99.90;;;;;;5054286;28;20241;-71
2022/01/18 05:41:23;;;;;;;1.17;1.10;;;1.00;99.90;;;;;;5054172;28;20186;-72
2022/01/18 05:43:48;;;;;;;1.30;0.87;;;1.00;99.90;;;;;;5054164;28;20199;-74
2022/01/18 05:46:14;;;;;;;2.23;2.03;;;1.00;99.90;;;;;;5054217;28;20294;-72
2022/01/18 05:48:39;;;;;;;4.90;1.90;;;1.00;99.90;;;;;;5054156;28;20556;-73
2022/01/18 05:51:05;;;;;;;0.97;0.93;;;1.00;99.90;;;;;;5054352;28;20167;-71
2022/01/18 05:53:34;;;;;;;1.50;1.10;;;1.00;99.90;;;;;;5059165;28;20193;-72
2022/01/18 05:56:04;;;;;;;2.97;2.67;;;1.00;99.90;;;;;;5073016;28;20178;-72
2022/01/18 05:58:29;;;;;;;10.73;1.77;;;1.00;99.90;;;;;;5074013;28;20424;-72
2022/01/18 06:00:55;;;;;;;13.33;1.60;;;0.90;99.90;;;;;;5074070;28;20412;-72
2022/01/18 06:03:38;;;;;;;0.90;0.90;;;0.90;99.90;;;;;;5073807;28;20194;-73
2022/01/18 06:08:48;;;;;;;0.80;0.80;;;0.80;99.90;;;;;;5074277;28;20428;-72
2022/01/18 06:11:14;;;;;;;19.43;2.00;;;0.80;99.90;;;;;;5074061;28;20761;-72
2022/01/18 06:13:39;;;;;;;5.20;1.87;;;0.80;99.90;;;;;;5073859;28;20171;-73
2022/01/18 06:16:05;;;;;;;0.73;0.73;;;0.80;99.90;;;;;;5055597;28;20609;-73
2022/01/18 06:18:31;;;;;;;7.30;3.03;;;0.80;99.90;;;;;;5053203;28;20210;-73
2022/01/18 06:20:58;;;;;;;3.03;2.13;;;0.70;99.90;;;;;;5053715;28;20414;-72
2022/01/18 06:23:23;;;;;;;3.17;1.53;;;0.70;99.90;;;;;;5053720;28;20197;-73
2022/01/18 06:25:49;;;;;;;2.43;1.60;;;0.60;99.90;;;;;;5053582;28;20402;-71
2022/01/18 06:28:14;;;;;;;1.80;1.00;;;0.60;99.90;;;;;;5053747;28;20218;-72
2022/01/18 06:30:40;;;;;;;0.93;0.93;;;0.50;99.90;;;;;;5053622;28;20159;-72
2022/01/18 06:33:05;;;;;;;1.40;1.30;;;0.60;99.90;;;;;;5053534;28;20171;-72
2022/01/18 06:35:31;;;;;;;1.57;1.47;;;0.60;99.90;;;;;;5053512;28;20179;-72
2022/01/18 06:37:57;;;;;;;12.90;1.77;;;0.60;99.90;;;;;;5053596;28;20190;-71
2022/01/18 06:40:22;;;;;;;2.80;2.60;;;0.70;99.90;;;;;;5053362;28;20163;-72
2022/01/18 06:42:48;;;;;;;5.80;1.40;;;0.70;99.90;;;;;;5053183;28;20171;-72
2022/01/18 06:45:15;;;;;;;1.80;1.50;;;0.80;99.90;;;;;;5053163;28;20245;-71
2022/01/18 06:47:40;;;;;;;0.90;0.90;;;0.80;99.90;;;;;;5053093;28;20186;-72
2022/01/18 06:50:07;;;;;;;0.90;0.90;;;0.80;99.90;;;;;;5053143;28;20406;-72
2022/01/18 06:52:33;;;;;;;3.63;1.27;;;0.70;99.90;;;;;;5052995;28;20171;-72
2022/01/18 06:55:01;;;;;;;1.43;1.30;;;0.80;99.90;;;;;;5070117;28;20428;-72
2022/01/18 06:57:26;;;;;;;2.33;1.73;;;0.80;99.90;;;;;;5072857;28;20235;-72
2022/01/18 06:59:51;;;;;;;7.33;1.43;;;0.90;99.90;;;;;;5073014;28;20400;-71
2022/01/18 07:02:17;;;;;;;5.17;1.90;;;0.90;99.90;;;;;;5072745;28;20183;-73
2022/01/18 07:04:42;;;;;;;1.63;1.53;;;1.00;99.90;;;;;;5072727;28;20206;-71
2022/01/18 07:07:08;;;;;;;8.70;2.17;;;1.00;99.90;;;;;;5072567;28;20170;-72
2022/01/18 07:09:35;;;;;;;5.13;2.00;;;1.00;99.90;;;;;;5072804;28;20569;-71
2022/01/18 07:12:00;;;;;;;13.00;1.90;;;1.10;99.90;;;;;;5072665;28;20170;-72
2022/01/18 07:14:26;;;;;;;1.70;1.10;;;1.20;99.90;;;;;;5072622;28;20515;-71
2022/01/18 07:16:51;;;;;;;4.03;2.30;;;1.30;99.90;;;;;;5070674;28;20175;-72
2022/01/18 07:19:17;;;;;;;1.33;1.23;;;1.30;99.90;;;;;;5052529;28;20569;-73
2022/01/18 07:21:43;;;;;;;1.77;1.67;;;1.40;99.90;;;;;;5052435;28;20274;-72
2022/01/18 07:24:17;;;;;;;1.30;1.20;;;1.50;99.90;;;;;;5052510;28;20206;-73
2022/01/18 07:26:45;;;;;;;0.90;0.90;;;1.50;99.90;;;;;;5052428;28;20158;-73
2022/01/18 07:29:11;;;;;;;1.87;1.53;;;1.60;99.90;;;;;;5052199;28;20439;-73
2022/01/18 07:31:36;;;;;;;1.33;1.23;;;1.70;99.90;;;;;;5034662;28;20904;-74
2022/01/18 07:34:02;;;;;;;1.90;1.80;;;1.70;99.90;;;;;;5052546;28;20625;-73
2022/01/18 07:36:27;;;;;;;7.50;1.57;;;1.80;99.90;;;;;;5052129;28;20198;-73
2022/01/18 07:38:55;;;;;;;15.27;4.20;;;1.90;99.90;;;;;;5052166;28;20199;-73
2022/01/18 07:41:21;;;;;;;4.23;2.73;;;1.90;99.90;;;;;;5034342;28;20203;-72
2022/01/18 07:43:46;;;;;;;2.97;1.73;;;2.00;99.90;;;;;;5051613;28;20547;-73
2022/01/18 07:46:12;;;;;;;2.87;1.37;;;2.00;99.90;;;;;;5051751;28;20628;-72
2022/01/18 07:48:37;;;;;;;1.60;1.47;;;2.10;99.90;;;;;;5051919;28;20268;-72
2022/01/18 07:51:03;;;;;;;2.17;2.00;;;2.10;99.90;;;;;;5052066;28;20791;-74
2022/01/18 07:53:28;;;;;;;2.60;1.53;;;2.20;99.90;;;;;;5056478;28;20193;-75
2022/01/18 07:55:53;;;;;;;5.37;1.97;;;2.20;99.90;;;;;;5072585;28;20652;-73
2022/01/18 07:58:19;;;;;;;5.20;2.10;;;2.30;99.90;;;;;;5071669;28;20190;-74
2022/01/18 08:00:47;;;;;;;6.90;1.40;;;2.40;99.90;;;;;;5060737;28;20674;-74
2022/01/18 08:03:12;;;;;;;3.33;1.20;;;2.40;99.90;;;;;;5041572;28;20187;-74
2022/01/18 08:05:38;;;;;;;1.50;1.37;;;2.50;99.90;;;;;;5022304;28;20430;-73
2022/01/18 08:08:05;;;;;;;8.40;2.23;;;2.50;99.90;;;;;;5047166;28;20243;-73
2022/01/18 08:10:31;;;;;;;2.10;2.00;;;2.60;99.90;;;;;;5051330;28;20167;-72
2022/01/18 08:13:00;;;;;;;1.33;1.20;;;2.70;99.90;;;;;;5047480;28;20424;-73
2022/01/18 08:15:27;;;;;;;2.37;2.17;;;2.70;99.90;;;;;;5042998;28;20432;-72
2022/01/18 08:17:54;;;;;;;4.37;2.23;;;2.60;99.90;;;;;;5043072;28;20536;-73
2022/01/18 08:20:21;;;;;;;3.17;2.70;;;2.60;99.90;;;;;;5047173;28;20482;-73
2022/01/18 08:22:47;;;;;;;7.63;1.90;;;2.70;99.90;;;;;;5043411;28;20440;-73
2022/01/18 08:25:14;;;;;;;3.27;1.50;;;2.70;99.90;;;;;;5051291;28;21099;-72
2022/01/18 08:27:41;;;;;;;1.43;1.33;;;2.70;99.90;;;;;;5051308;28;20806;-73
2022/01/18 08:30:10;;;;;;;3.30;1.47;;;2.80;99.90;;;;;;5051006;28;20420;-72
2022/01/18 08:32:35;;;;;;;7.20;2.37;;;2.80;99.90;;;;;;5051186;28;20798;-72
2022/01/18 08:35:01;;;;;;;5.70;1.53;;;2.90;99.90;;;;;;5045631;28;20417;-72
2022/01/18 08:37:27;;;;;;;11.37;1.53;;;3.00;99.90;;;;;;5051333;28;20194;-74
2022/01/18 08:39:52;;;;;;;4.00;1.93;;;2.90;99.90;;;;;;5038641;28;20472;-72
2022/01/18 08:42:18;;;;;;;1.30;1.20;;;3.00;99.90;;;;;;5044618;28;20610;-72
2022/01/18 08:44:44;;;;;;;2.73;2.53;;;3.10;99.90;;;;;;5038238;28;20242;-72
2022/01/18 08:47:11;;;;;;;1.47;1.37;;;3.10;99.90;;;;;;5045651;28;20167;-74
2022/01/18 08:49:37;;;;;;;1.50;1.23;;;3.10;99.90;;;;;;5042541;28;20426;-73
2022/01/18 08:52:03;;;;;;;1.90;1.43;;;3.00;99.90;;;;;;5045365;28;20433;-73
2022/01/18 08:54:29;;;;;;;6.73;1.67;;;3.00;99.90;;;;;;5053004;28;20178;-73
2022/01/18 08:56:54;;;;;;;2.50;2.03;;;3.00;99.90;;;;;;5046612;28;20437;-74
2022/01/18 08:59:21;;;;;;;2.23;2.07;;;3.10;99.90;;;;;;5037717;28;20257;-72
2022/01/18 09:01:46;;;;;;;1.63;1.10;;;3.20;99.90;;;;;;5043629;28;20253;-72
2022/01/18 09:04:12;;;;;;;1.30;1.20;;;3.30;99.90;;;;;;5036588;28;20462;-72
2022/01/18 09:06:39;;;;;;;9.60;2.07;;;3.20;99.90;;;;;;5042536;28;20182;-72
2022/01/18 09:09:05;;;;;;;3.83;1.43;;;3.30;99.90;;;;;;5045042;28;20198;-72
2022/01/18 09:11:31;;;;;;;1.83;1.70;;;3.30;99.90;;;;;;5050958;28;20443;-72
2022/01/18 09:13:57;;;;;;;1.50;0.97;;;3.40;99.90;;;;;;5050810;28;20494;-72
2022/01/18 09:16:23;;;;;;;1.73;1.63;;;3.40;99.90;;;;;;5051061;28;20965;-72
2022/01/18 09:18:50;;;;;;;5.50;2.20;;;3.50;99.90;;;;;;5051149;28;20510;-72
2022/01/18 09:21:16;;;;;;;2.03;1.60;;;3.50;99.90;;;;;;5050842;28;20207;-72
2022/01/18 09:23:42;;;;;;;2.80;1.97;;;3.50;99.90;;;;;;5051008;28;20862;-72
2022/01/18 09:26:08;;;;;;;9.90;2.37;;;3.60;99.90;;;;;;5050686;28;20504;-71
2022/01/18 09:28:34;;;;;;;1.93;1.57;;;3.60;99.90;;;;;;5050676;28;20467;-72
2022/01/18 09:31:02;;;;;;;3.90;2.20;;;3.70;99.90;;;;;;5051384;28;20185;-72
2022/01/18 09:33:28;;;;;;;3.20;1.80;;;3.70;99.90;;;;;;5043605;28;20176;-74
2022/01/18 09:35:53;;;;;;;3.07;1.80;;;3.70;99.90;;;;;;5040206;28;20564;-73
2022/01/18 09:38:19;;;;;;;2.33;1.73;;;3.70;99.90;;;;;;5050761;28;20198;-74
2022/01/18 09:40:45;;;;;;;1.03;0.90;;;3.80;99.90;;;;;;5053750;28;20191;-72
2022/01/18 09:43:14;;;;;;;3.30;1.63;;;3.80;99.90;;;;;;5050740;28;20237;-73
2022/01/18 09:45:41;;;;;;;1.87;1.20;;;3.90;99.90;;;;;;5051691;28;20440;-73
2022/01/18 09:48:08;;;;;;;10.43;1.83;;;4.00;99.90;;;;;;5047996;28;20530;-72
2022/01/18 09:50:36;;;;;;;4.70;1.30;;;4.10;99.90;;;;;;5038742;28;20449;-72
2022/01/18 09:53:03;;;;;;;10.90;2.00;;;4.20;99.90;;;;;;5041121;28;20421;-73
2022/01/18 09:55:31;;;;;;;1.43;1.33;;;4.20;99.90;;;;;;5059170;28;20428;-72
2022/01/18 09:57:59;;;;;;;2.20;1.57;;;4.20;99.90;;;;;;5046062;28;20947;-73
2022/01/18 10:00:27;;;;;;;1.63;1.53;;;4.10;99.90;;;;;;5053622;28;20425;-71
2022/01/18 10:02:53;;;;;;;4.27;1.40;;;4.30;99.90;;;;;;5053873;28;20926;-74
2022/01/18 10:05:20;;;;;;;1.37;1.27;;;4.30;99.90;;;;;;5053589;28;20547;-71
2022/01/18 10:07:55;;;;;;;2.30;2.10;;;4.40;99.90;;;;;;5048750;28;20210;-72
2022/01/18 10:10:21;;;;;;;1.10;1.03;;;4.40;99.90;;;;;;5053558;28;20926;-71
2022/01/18 10:12:55;;;;;;;2.50;1.37;;;4.40;99.90;;;;;;5053617;28;20497;-73
2022/01/18 10:15:21;;;;;;;2.63;1.40;;;4.50;99.90;;;;;;5045908;28;20428;-72
2022/01/18 10:17:46;;;;;;;9.10;2.77;;;4.50;99.90;;;;;;5053377;28;20814;-73
2022/01/18 10:20:19;;;;;;;3.07;1.63;;;4.70;99.90;;;;;;5045323;28;20540;-71
2022/01/18 10:22:49;;;;;;;3.50;2.20;;;4.60;99.90;;;;;;5047765;28;20532;-71
2022/01/18 10:25:24;;;;;;;1.93;1.10;;;4.60;99.90;;;;;;5035651;28;20595;-72
2022/01/18 10:27:53;;;;;;;9.10;1.97;;;4.60;99.90;;;;;;5053076;28;20436;-71
2022/01/18 10:30:44;;;;;;;3.23;1.37;;;4.70;99.90;;;;;;5047411;28;20437;-74
2022/01/18 10:33:16;;;;;;;6.03;2.27;;;4.90;99.90;;;;;;5050215;28;20428;-72
2022/01/18 10:36:08;;;;;;;1.00;0.90;;;4.90;99.90;;;;;;5046365;28;20852;-72
2022/01/18 10:38:34;;;;;;;1.90;1.03;;;5.10;99.90;;;;;;5046206;28;20454;-71
2022/01/18 10:41:28;;;;;;;2.53;1.30;;;4.90;99.90;;;;;;5053783;28;20835;-70
2022/01/18 10:44:13;;;;;;;1.80;1.20;;;5.10;99.90;;;;;;5042039;28;20472;-72
2022/01/18 10:46:49;;;;;;;2.33;1.87;;;5.20;99.90;;;;;;5051476;28;20425;-72
2022/01/18 10:49:43;;;;;;;3.00;1.30;;;5.50;99.90;;;;;;5055967;28;20433;-72
2022/01/18 10:52:12;;;;;;;3.67;1.83;;;5.60;99.90;;;;;;5057472;28;20413;-70
2022/01/18 10:54:39;;;;;;;3.70;1.43;;;5.50;99.90;;;;;;5046402;28;20433;-73
2022/01/18 10:57:06;;;;;;;20.40;10.27;;;5.40;99.90;;;;;;5049155;28;20441;-70
2022/01/18 10:59:33;;;;;;;3.17;2.47;;;5.40;99.90;;;;;;5041862;28;20421;-73
2022/01/18 11:02:19;;;;;;;5.23;3.20;;;5.60;99.90;;;;;;5052585;28;20789;-71
2022/01/18 11:04:51;;;;;;;5.23;1.83;;;5.40;99.90;;;;;;5052433;28;20795;-69
2022/01/18 11:07:20;;;;;;;1.53;1.37;;;5.20;99.90;;;;;;5048470;28;20445;-71
2022/01/18 11:09:46;;;;;;;5.77;3.60;;;5.50;99.90;;;;;;5042214;28;20430;-71
2022/01/18 11:12:12;;;;;;;3.80;1.17;;;5.60;99.90;;;;;;5051841;28;20453;-71
2022/01/18 11:14:44;;;;;;;4.30;1.70;;;5.60;99.90;;;;;;5050134;28;20581;-74
2022/01/18 11:17:23;;;;;;;4.50;0.90;;;5.80;99.90;;;;;;5037094;28;20961;-74
2022/01/18 11:19:50;;;;;;;0.70;0.70;;;5.90;99.90;;;;;;5052852;28;20425;-74
2022/01/18 11:22:17;;;;;;;1.10;1.00;;;5.80;99.90;;;;;;5052246;28;20417;-73
2022/01/18 11:24:45;;;;;;;3.40;1.03;;;5.80;99.90;;;;;;5051619;28;20456;-73
2022/01/18 11:27:13;;;;;;;1.07;0.90;;;5.90;99.90;;;;;;5038646;28;20476;-72
2022/01/18 11:29:41;;;;;;;1.00;0.87;;;6.00;99.90;;;;;;5050092;28;20767;-72
2022/01/18 11:32:09;;;;;;;2.20;1.00;;;6.10;99.90;;;;;;5048404;28;20752;-72
2022/01/18 11:34:55;;;;;;;3.00;1.53;;;6.00;99.90;;;;;;5052179;28;20783;-73
2022/01/18 11:37:30;;;;;;;1.00;0.70;;;5.90;99.90;;;;;;5051933;28;20445;-74
2022/01/18 11:40:05;;;;;;;2.60;1.67;;;5.90;99.90;;;;;;5052193;28;20972;-73
2022/01/18 11:42:50;;;;;;;1.23;0.80;;;5.80;99.90;;;;;;5051779;28;20523;-74
2022/01/18 11:45:24;;;;;;;3.60;1.93;;;5.70;99.90;;;;;;5050478;28;20448;-73
2022/01/18 11:48:11;;;;;;;1.53;0.87;;;5.80;99.90;;;;;;5051580;28;20447;-72
2022/01/18 11:50:46;;;;;;;5.77;1.27;;;5.80;99.90;;;;;;5051894;28;20424;-72
2022/01/18 11:53:17;;;;;;;1.73;0.90;;;6.00;99.90;;;;;;5053789;28;20487;-72
2022/01/18 11:55:45;;;;;;;4.33;1.17;;;5.70;99.90;;;;;;5062334;28;20429;-73
2022/01/18 11:58:12;;;;;;;1.43;0.97;;;5.90;99.90;;;;;;5051693;28;20446;-72
2022/01/18 12:00:49;;;;;;;2.70;1.30;;;5.90;99.90;;;;;;5052093;28;20428;-73
2022/01/18 12:03:18;;;;;;;5.90;3.70;;;6.00;99.90;;;;;;5052278;28;20424;-74
2022/01/18 12:05:43;;;;;;;3.17;1.80;;;6.10;99.90;;;;;;5041282;28;20846;-74
2022/01/18 12:08:09;;;;;;;2.57;1.50;;;6.20;99.90;;;;;;5044703;28;20444;-73
2022/01/18 12:10:43;;;;;;;1.47;1.17;;;6.20;99.90;;;;;;5047910;28;20167;-72
2022/01/18 12:13:25;;;;;;;2.73;0.83;;;6.00;99.90;;;;;;5048325;28;20265;-74
2022/01/18 12:15:55;;;;;;;2.40;1.30;;;6.00;99.90;;;;;;5047192;28;20452;-72
2022/01/18 12:18:29;;;;;;;1.23;0.77;;;6.20;99.90;;;;;;5048503;28;20453;-71
2022/01/18 12:21:05;;;;;;;1.23;0.90;;;6.20;99.90;;;;;;5043460;28;20479;-72
2022/01/18 12:23:31;;;;;;;2.37;2.00;;;6.10;99.90;;;;;;5042463;28;20492;-70
2022/01/18 12:29:18;;;;;;;6.50;1.00;;;6.00;99.90;;;;;;5050522;28;20201;-74
2022/01/18 12:36:54;;;;;;;6.83;0.80;;;6.10;99.90;;;;;;5046352;28;20185;-71
2022/01/18 12:39:20;;;;;;;1.00;0.90;;;6.10;99.90;;;;;;5053105;28;20783;-72
2022/01/18 12:41:51;;;;;;;2.30;1.00;;;6.20;99.90;;;;;;5035119;28;20516;-74
2022/01/18 12:44:24;;;;;;;1.00;0.90;;;6.00;99.90;;;;;;5052943;28;20468;-73
2022/01/18 12:46:58;;;;;;;1.07;0.90;;;5.90;99.90;;;;;;5053004;28;20428;-73
2022/01/18 12:49:26;;;;;;;1.97;1.07;;;5.90;99.90;;;;;;5049449;28;20485;-75
2022/01/18 12:51:56;;;;;;;4.90;1.43;;;6.00;99.90;;;;;;5053145;28;20421;-72
2022/01/18 12:54:40;;;;;;;0.80;0.80;;;6.00;99.90;;;;;;5064897;28;20425;-73
2022/01/18 12:57:31;;;;;;;5.50;1.43;;;6.00;99.90;;;;;;5051560;28;20413;-74
2022/01/18 13:00:09;;;;;;;2.27;1.00;;;6.20;99.90;;;;;;5048349;28;20421;-73
2022/01/18 13:02:35;;;;;;;1.20;1.03;;;5.90;99.90;;;;;;5052966;28;20409;-75
2022/01/18 13:05:04;;;;;;;2.10;1.10;;;5.80;99.90;;;;;;5052438;28;20453;-72
2022/01/18 13:07:30;;;;;;;0.70;0.70;;;6.00;99.90;;;;;;5056351;28;20934;-72
2022/01/18 13:10:09;;;;;;;1.40;1.30;;;6.00;99.90;;;;;;5049859;28;20445;-73
2022/01/18 13:12:37;;;;;;;2.13;1.47;;;6.20;99.90;;;;;;5045516;28;20428;-72
2022/01/18 13:15:06;;;;;;;1.83;1.17;;;6.30;99.90;;;;;;5045370;28;20426;-72
2022/01/18 13:23:23;;;;;;;1.27;1.00;;;6.30;99.90;;;;;;5054288;28;20424;-73
2022/01/18 13:25:53;;;;;;;2.77;2.50;;;6.20;99.90;;;;;;5054520;28;20903;-74
2022/01/18 13:28:19;;;;;;;0.80;0.80;;;6.20;99.90;;;;;;5036869;28;20475;-72
2022/01/18 13:30:44;;;;;;;1.03;0.80;;;6.10;99.90;;;;;;5054007;28;20413;-73
2022/01/18 13:33:12;;;;;;;1.83;0.80;;;6.00;99.90;;;;;;5054317;28;20811;-73
2022/01/18 13:35:38;;;;;;;1.83;0.80;;;5.80;99.90;;;;;;5054457;28;20174;-72
2022/01/18 13:38:04;;;;;;;0.80;0.80;;;5.80;99.90;;;;;;5054370;28;20433;-72
2022/01/18 13:40:31;;;;;;;7.27;2.00;;;5.80;99.90;;;;;;5054667;28;20408;-73
2022/01/18 13:43:11;;;;;;;0.80;0.80;;;5.80;99.90;;;;;;5054636;28;20409;-74
2022/01/18 13:45:42;;;;;;;4.30;1.27;;;5.90;99.90;;;;;;5054237;28;20474;-75
2022/01/18 13:48:10;;;;;;;2.20;0.90;;;5.90;99.90;;;;;;5054195;28;20470;-73
2022/01/18 13:50:45;;;;;;;6.70;0.90;;;5.70;99.90;;;;;;5053982;28;20421;-73
2022/01/18 13:53:17;;;;;;;1.43;1.00;;;5.60;99.90;;;;;;5056394;28;20419;-72
2022/01/18 13:56:23;;;;;;;6.53;2.07;;;5.70;99.90;;;;;;5049403;28;20520;-73
2022/01/18 13:59:03;;;;;;;3.90;1.33;;;5.80;99.90;;;;;;5016063;28;20554;-73
2022/01/18 14:01:45;;;;;;;1.23;1.00;;;5.70;99.90;;;;;;5044028;28;20428;-72
2022/01/18 14:04:29;;;;;;;1.43;0.90;;;5.70;99.90;;;;;;5051416;28;20547;-72
2022/01/18 14:07:05;;;;;;;1.27;0.80;;;5.70;99.90;;;;;;5045582;28;20418;-73
2022/01/18 14:09:37;;;;;;;1.43;0.70;;;5.80;99.90;;;;;;5052482;28;20410;-71
2022/01/18 14:12:17;;;;;;;0.80;0.70;;;5.70;99.90;;;;;;5048618;28;20457;-72
2022/01/18 14:14:48;;;;;;;2.10;1.53;;;5.60;99.90;;;;;;5042045;28;20974;-72
2022/01/18 14:17:15;;;;;;;2.10;1.20;;;5.60;99.90;;;;;;5040818;28;20504;-74
2022/01/18 14:19:48;;;;;;;5.83;1.57;;;5.70;99.90;;;;;;5055673;28;20436;-73
2022/01/18 14:22:24;;;;;;;3.17;1.47;;;5.70;99.90;;;;;;5040320;28;20441;-73
2022/01/18 14:24:57;;;;;;;1.53;1.00;;;5.70;99.90;;;;;;5052026;28;20496;-73
2022/01/18 14:27:31;;;;;;;1.57;1.00;;;5.70;99.90;;;;;;5049152;28;20490;-73
2022/01/18 14:30:19;;;;;;;0.67;0.67;;;5.70;99.90;;;;;;5046020;28;20540;-72
2022/01/18 14:32:49;;;;;;;1.00;1.00;;;5.70;99.90;;;;;;5048244;28;20426;-74